createdAt,value
2022-08-12T00:14:48.957Z,1015.28
2022-08-12T00:29:48.836Z,1015.35
2022-08-12T00:44:49.196Z,1015.31
2022-08-12T00:59:49.069Z,1015.38
2022-08-12T01:14:49.184Z,1015.49
2022-08-12T01:29:48.986Z,1015.29
2022-08-12T01:44:49.111Z,1015.31
2022-08-12T01:59:49.067Z,1015.39
2022-08-12T02:14:49.127Z,1015.36
2022-08-12T02:29:49.469Z,1015.41
2022-08-12T02:44:49.554Z,1015.35
2022-08-12T02:59:49.342Z,1015.44
2022-08-12T03:14:49.531Z,1015.44
2022-08-12T03:29:51.393Z,1015.56
2022-08-12T03:44:49.537Z,1015.51
2022-08-12T03:59:49.348Z,1015.54
2022-08-12T04:14:49.502Z,1015.50
2022-08-12T04:30:29.423Z,1015.57
2022-08-12T04:44:49.846Z,1015.58
2022-08-12T04:59:49.650Z,1015.52
2022-08-12T05:14:49.467Z,1015.47
2022-08-12T05:30:08.103Z,1015.44
2022-08-12T05:44:49.554Z,1015.46
2022-08-12T05:59:49.756Z,1015.47
2022-08-12T06:14:49.977Z,1015.61
2022-08-12T06:30:07.958Z,1015.56
2022-08-12T06:44:49.956Z,1015.50
2022-08-12T06:59:49.983Z,1015.40
2022-08-12T07:14:49.782Z,1015.47
2022-08-12T07:30:02.494Z,1015.54
2022-08-12T07:44:51.688Z,1015.65
2022-08-12T07:59:49.903Z,1015.60
2022-08-12T08:14:50.471Z,1015.53
2022-08-12T08:29:49.988Z,1015.54
2022-08-12T08:44:57.700Z,1015.57
2022-08-12T09:14:51.365Z,1015.53
2022-08-12T09:30:09.820Z,1015.41
2022-08-12T09:45:18.277Z,1015.32
2022-08-12T10:00:12.767Z,1015.20
2022-08-12T10:14:54.798Z,1015.10
2022-08-12T10:30:01.526Z,1014.92
2022-08-12T10:44:50.513Z,1014.68
2022-08-12T11:00:31.700Z,1014.54
2022-08-12T11:14:53.253Z,1014.31
2022-08-12T11:30:01.685Z,1014.23
2022-08-12T11:44:50.466Z,1014.16
2022-08-12T12:14:54.533Z,1013.84
2022-08-12T12:30:18.700Z,1013.75
2022-08-12T12:44:53.442Z,1013.63
2022-08-12T12:59:55.941Z,1013.47
2022-08-12T13:14:50.780Z,1013.18
2022-08-12T13:29:50.778Z,1013.25
2022-08-12T13:44:50.901Z,1013.09
2022-08-12T13:59:55.587Z,1012.99
2022-08-12T14:14:50.791Z,1012.87
2022-08-12T14:30:05.474Z,1012.88
2022-08-12T14:44:59.203Z,1012.85
2022-08-12T14:59:57.788Z,1012.80
2022-08-12T15:14:51.021Z,1012.68
2022-08-12T15:29:52.254Z,1012.61
2022-08-12T15:44:51.110Z,1012.59
2022-08-12T16:00:06.487Z,1012.42
2022-08-12T16:14:51.173Z,1012.48
2022-08-12T16:29:52.850Z,1012.34
2022-08-12T16:44:51.296Z,1012.21
2022-08-12T16:59:54.591Z,1012.00
2022-08-12T17:14:53.072Z,1012.09
2022-08-12T17:30:03.056Z,1011.95
2022-08-12T17:44:51.939Z,1012.04
2022-08-12T17:59:51.962Z,1012.14
2022-08-12T18:14:53.707Z,1012.16
2022-08-12T18:29:52.097Z,1012.28
2022-08-12T18:44:55.170Z,1012.43
2022-08-12T19:00:01.421Z,1012.47
2022-08-12T19:14:52.031Z,1012.50
2022-08-12T19:30:06.578Z,1012.48
2022-08-12T19:44:52.117Z,1012.62
2022-08-12T20:00:04.387Z,1012.73
2022-08-12T20:14:57.090Z,1012.70
2022-08-12T20:29:54.508Z,1012.76
2022-08-12T20:44:52.218Z,1012.81
2022-08-12T20:59:52.394Z,1012.87
2022-08-12T21:14:53.271Z,1012.98
2022-08-12T21:29:55.470Z,1013.08
2022-08-12T21:45:46.701Z,1013.00
2022-08-12T21:59:53.918Z,1013.12
2022-08-12T22:14:52.365Z,1013.16
2022-08-12T22:29:52.872Z,1013.24
2022-08-12T22:44:55.214Z,1013.21
2022-08-12T22:59:55.975Z,1013.27
2022-08-12T23:14:52.924Z,1013.19
2022-08-12T23:30:05.915Z,1013.09
2022-08-12T23:44:53.048Z,1013.05
2022-08-12T23:59:55.500Z,1013.08
